createdAt,value
2022-09-27T00:02:19.860Z,98705.34
2022-09-27T00:05:21.292Z,98702.91
2022-09-27T00:08:22.710Z,98697.81
2022-09-27T00:11:39.333Z,98704.31
2022-09-27T00:14:40.925Z,98699.81
2022-09-27T00:17:42.581Z,98700.47
2022-09-27T00:20:43.955Z,98694.47
2022-09-27T00:23:45.592Z,98694.50
2022-09-27T00:26:48.240Z,98685.53
2022-09-27T00:29:49.632Z,98683.59
2022-09-27T00:32:52.887Z,98681.50
2022-09-27T00:35:54.448Z,98678.41
2022-09-27T00:38:56.650Z,98675.94
2022-09-27T00:41:58.030Z,98667.72
2022-09-27T00:45:13.767Z,98665.28
2022-09-27T00:48:21.163Z,98665.59
2022-09-27T00:51:22.781Z,98665.91
2022-09-27T00:54:28.273Z,98660.94
2022-09-27T00:57:29.862Z,98654.09
2022-09-27T01:00:31.704Z,98650.09
2022-09-27T01:04:05.874Z,98647.66
2022-09-27T01:07:07.495Z,98652.00
2022-09-27T01:10:09.563Z,98652.03
2022-09-27T01:13:26.199Z,98658.91
2022-09-27T01:16:40.852Z,98651.94
2022-09-27T01:19:50.962Z,98648.69
2022-09-27T01:23:22.095Z,98655.34
2022-09-27T01:26:32.455Z,98648.25
2022-09-27T01:30:08.284Z,98655.34
2022-09-27T01:33:35.587Z,98654.50
2022-09-27T01:36:52.928Z,98654.34
2022-09-27T01:39:57.290Z,98653.66
2022-09-27T01:43:18.396Z,98641.84
2022-09-27T01:46:32.146Z,98652.00
2022-09-27T01:49:59.232Z,98659.56
2022-09-27T01:53:20.245Z,98661.03
2022-09-27T01:56:49.593Z,98659.78
2022-09-27T02:00:07.234Z,98659.19
2022-09-27T02:03:24.354Z,98668.22
2022-09-27T02:07:03.833Z,98663.34
2022-09-27T02:10:16.379Z,98672.00
2022-09-27T02:13:37.414Z,98671.25
2022-09-27T02:17:24.493Z,98676.94
2022-09-27T02:20:39.017Z,98669.94
2022-09-27T02:23:48.813Z,98663.44
2022-09-27T02:27:02.029Z,98677.56
2022-09-27T02:30:08.033Z,98679.34
2022-09-27T02:33:10.566Z,98679.34
2022-09-27T02:36:12.409Z,98681.72
2022-09-27T02:39:14.516Z,98684.63
2022-09-27T02:42:16.109Z,98686.16
2022-09-27T02:45:19.849Z,98698.75
2022-09-27T02:48:37.134Z,98694.94
2022-09-27T02:51:47.255Z,98689.19
2022-09-27T02:55:06.412Z,98694.72
2022-09-27T02:58:40.272Z,98696.34
2022-09-27T03:02:13.527Z,98700.84
2022-09-27T03:05:35.122Z,98709.91
2022-09-27T03:08:38.348Z,98698.97
2022-09-27T03:11:40.522Z,98702.31
2022-09-27T03:14:41.923Z,98714.03
2022-09-27T03:18:03.630Z,98717.44
2022-09-27T03:21:33.878Z,98722.94
2022-09-27T03:24:35.363Z,98722.09
2022-09-27T03:27:37.157Z,98727.44
2022-09-27T03:30:38.707Z,98732.91
2022-09-27T03:33:40.890Z,98736.69
2022-09-27T03:36:45.388Z,98730.47
2022-09-27T03:39:46.802Z,98732.38
2022-09-27T03:42:50.252Z,98723.53
2022-09-27T03:45:51.830Z,98730.84
2022-09-27T03:48:53.255Z,98738.19
2022-09-27T03:51:54.663Z,98733.88
2022-09-27T03:55:01.808Z,98738.59
2022-09-27T03:58:03.732Z,98741.56
2022-09-27T04:01:05.325Z,98745.16
2022-09-27T04:04:11.247Z,98757.03
2022-09-27T04:07:13.352Z,98756.19
2022-09-27T04:10:15.748Z,98771.25
2022-09-27T04:13:17.694Z,98772.66
2022-09-27T04:16:27.528Z,98769.75
2022-09-27T04:19:49.463Z,98777.13
2022-09-27T04:22:51.181Z,98783.03
2022-09-27T04:25:52.822Z,98780.47
2022-09-27T04:29:05.745Z,98772.88
2022-09-27T04:32:13.033Z,98778.03
2022-09-27T04:35:52.982Z,98778.03
2022-09-27T04:38:56.329Z,98785.00
2022-09-27T04:41:57.809Z,98785.22
2022-09-27T04:44:59.440Z,98791.59
2022-09-27T04:48:01.048Z,98796.41
2022-09-27T04:51:03.683Z,98799.97
2022-09-27T04:54:05.289Z,98794.31
2022-09-27T04:57:12.137Z,98799.13
2022-09-27T05:00:15.093Z,98806.31
2022-09-27T05:03:19.441Z,98808.66
2022-09-27T05:06:30.454Z,98813.94
2022-09-27T05:09:39.498Z,98812.16
2022-09-27T05:12:41.169Z,98821.56
2022-09-27T05:15:42.782Z,98819.75
2022-09-27T05:19:07.057Z,98824.13
2022-09-27T05:22:40.768Z,98833.53
2022-09-27T05:25:43.024Z,98835.97
2022-09-27T05:28:45.960Z,98833.72
2022-09-27T05:31:47.411Z,98851.59
2022-09-27T05:34:49.184Z,98851.25
2022-09-27T05:37:58.725Z,98857.53
2022-09-27T05:41:03.932Z,98864.38
2022-09-27T05:44:05.891Z,98861.59
2022-09-27T05:47:08.206Z,98871.44
2022-09-27T05:50:09.789Z,98876.47
2022-09-27T05:53:11.590Z,98876.06
2022-09-27T05:56:13.158Z,98880.22
2022-09-27T05:59:34.669Z,98884.28
2022-09-27T06:02:56.651Z,98882.00
2022-09-27T06:06:16.874Z,98885.88
2022-09-27T06:09:26.992Z,98889.53
2022-09-27T06:12:28.465Z,98888.69
2022-09-27T06:15:31.828Z,98887.75
2022-09-27T06:18:33.948Z,98891.34
2022-09-27T06:21:35.855Z,98896.03
2022-09-27T06:24:37.412Z,98895.66
2022-09-27T06:27:44.782Z,98895.28
2022-09-27T06:30:55.890Z,98897.94
2022-09-27T06:34:17.560Z,98906.59
2022-09-27T06:37:19.149Z,98902.28
2022-09-27T06:40:20.795Z,98907.00
2022-09-27T06:43:49.407Z,98915.91
2022-09-27T06:47:27.200Z,98918.66
2022-09-27T06:50:49.093Z,98923.94
2022-09-27T06:53:50.740Z,98931.84
2022-09-27T06:56:52.229Z,98928.81
2022-09-27T07:00:12.293Z,98931.28
2022-09-27T07:03:43.034Z,98939.34
2022-09-27T07:06:53.639Z,98944.72
2022-09-27T07:09:57.770Z,98947.03
2022-09-27T07:13:07.979Z,98950.53
2022-09-27T07:16:15.990Z,98958.84
2022-09-27T07:19:18.281Z,98964.59
2022-09-27T07:22:20.730Z,98976.22
2022-09-27T07:25:27.964Z,98977.66
2022-09-27T07:28:30.076Z,98984.81
2022-09-27T07:31:32.526Z,98984.13
2022-09-27T07:34:34.088Z,98990.09
2022-09-27T07:37:37.525Z,98996.81
2022-09-27T07:40:40.202Z,99000.44
2022-09-27T07:43:44.355Z,99007.25
2022-09-27T07:46:46.088Z,99004.16
2022-09-27T07:49:57.277Z,99010.00
2022-09-27T07:53:24.782Z,99008.94
2022-09-27T07:56:32.995Z,99015.84
2022-09-27T07:59:35.010Z,99022.53
2022-09-27T08:02:37.863Z,99020.25
2022-09-27T08:05:39.417Z,99035.50
2022-09-27T08:08:41.486Z,99029.47
2022-09-27T08:11:44.751Z,99026.31
2022-09-27T08:14:48.549Z,99025.56
2022-09-27T08:17:50.802Z,99024.63
2022-09-27T08:21:00.946Z,99028.47
2022-09-27T08:24:37.850Z,99023.34
2022-09-27T08:27:59.944Z,99023.91
2022-09-27T08:31:09.508Z,99029.75
2022-09-27T08:34:11.948Z,99037.06
2022-09-27T08:37:13.389Z,99034.34
2022-09-27T08:40:17.599Z,99035.38
2022-09-27T08:43:44.317Z,99042.53
2022-09-27T08:47:27.096Z,99041.25
2022-09-27T08:50:39.006Z,99052.25
2022-09-27T08:54:07.589Z,99048.69
2022-09-27T08:57:12.698Z,99058.53
2022-09-27T09:00:15.590Z,99054.53
2022-09-27T09:03:20.981Z,99053.69
2022-09-27T09:06:40.430Z,99050.75
2022-09-27T09:10:03.098Z,99053.22
2022-09-27T09:13:42.312Z,99058.13
2022-09-27T09:16:57.084Z,99050.03
2022-09-27T09:20:16.989Z,99050.78
2022-09-27T09:23:53.732Z,99045.88
2022-09-27T09:27:06.191Z,99045.97
2022-09-27T09:30:24.821Z,99046.34
2022-09-27T09:33:35.216Z,99045.81
2022-09-27T09:36:47.437Z,99046.97
2022-09-27T09:40:14.153Z,99046.13
2022-09-27T09:43:48.142Z,99047.56
2022-09-27T09:46:55.572Z,99039.25
2022-09-27T09:50:06.929Z,99049.28
2022-09-27T09:53:43.717Z,99044.81
2022-09-27T09:56:53.252Z,99054.16
2022-09-27T10:00:01.116Z,99042.66
2022-09-27T10:03:03.706Z,99046.19
2022-09-27T10:06:06.574Z,99056.16
2022-09-27T10:09:11.780Z,99043.22
2022-09-27T10:12:39.152Z,99038.53
2022-09-27T10:15:41.082Z,99051.59
2022-09-27T10:18:47.626Z,99046.22
2022-09-27T10:21:53.811Z,99049.28
2022-09-27T10:24:58.531Z,99063.84
2022-09-27T10:28:38.053Z,99063.94
2022-09-27T10:31:42.080Z,99055.47
2022-09-27T10:34:51.182Z,99058.88
2022-09-27T10:37:53.675Z,99053.94
2022-09-27T10:41:16.633Z,99060.88
2022-09-27T10:44:29.858Z,99063.81
2022-09-27T10:47:52.388Z,99061.59
2022-09-27T10:51:20.796Z,99048.91
2022-09-27T10:54:36.354Z,99041.25
2022-09-27T10:57:40.731Z,99033.19
2022-09-27T11:00:58.010Z,99035.81
2022-09-27T11:04:00.291Z,99030.94
2022-09-27T11:07:22.024Z,99022.72
2022-09-27T11:10:37.183Z,99029.97
2022-09-27T11:13:41.220Z,99019.81
2022-09-27T11:17:17.918Z,99020.56
2022-09-27T11:20:37.040Z,99020.22
2022-09-27T11:23:56.212Z,99012.47
2022-09-27T11:27:25.494Z,99010.97
2022-09-27T11:30:40.731Z,99012.47
2022-09-27T11:34:37.264Z,99016.03
2022-09-27T11:37:46.981Z,98998.63
2022-09-27T11:41:16.240Z,98993.25
2022-09-27T11:44:25.890Z,98991.94
2022-09-27T11:47:44.090Z,98992.59
2022-09-27T11:51:12.616Z,98994.59
2022-09-27T11:54:39.749Z,98983.34
2022-09-27T11:58:00.875Z,98977.13
2022-09-27T12:01:44.645Z,98972.06
2022-09-27T12:05:08.352Z,98971.50
2022-09-27T12:08:53.440Z,98969.53
2022-09-27T12:12:02.892Z,98959.16
2022-09-27T12:15:14.130Z,98966.50
2022-09-27T12:18:29.365Z,98961.19
2022-09-27T12:21:34.526Z,98946.44
2022-09-27T12:24:38.239Z,98956.63
2022-09-27T12:28:14.257Z,98969.47
2022-09-27T12:31:29.378Z,98958.50
2022-09-27T12:34:40.178Z,98947.59
2022-09-27T12:38:00.772Z,98960.44
2022-09-27T12:41:07.402Z,98949.91
2022-09-27T12:44:17.235Z,98949.22
2022-09-27T12:47:44.490Z,98958.94
2022-09-27T12:51:10.298Z,98965.16
2022-09-27T12:54:30.121Z,98965.88
2022-09-27T12:57:50.508Z,98950.47
2022-09-27T13:01:07.267Z,98954.72
2022-09-27T13:04:30.416Z,98954.50
2022-09-27T13:08:21.674Z,98954.59
2022-09-27T13:11:51.044Z,98964.03
2022-09-27T13:15:01.875Z,98953.78
2022-09-27T13:18:06.769Z,98950.38
2022-09-27T13:21:51.375Z,98936.84
2022-09-27T13:25:56.673Z,98940.75
2022-09-27T13:29:27.538Z,98931.53
2022-09-27T13:32:31.415Z,98933.66
2022-09-27T13:35:33.398Z,98933.31
2022-09-27T13:39:06.076Z,98933.53
2022-09-27T13:42:34.080Z,98933.44
2022-09-27T13:45:57.401Z,98932.59
2022-09-27T13:49:21.317Z,98922.66
2022-09-27T13:53:02.788Z,98929.25
2022-09-27T13:56:06.334Z,98920.56
2022-09-27T13:59:20.068Z,98923.38
2022-09-27T14:02:42.213Z,98925.72
2022-09-27T14:06:03.485Z,98935.41
2022-09-27T14:09:18.699Z,98921.72
2022-09-27T14:12:31.970Z,98914.63
2022-09-27T14:15:35.429Z,98926.16
2022-09-27T14:18:45.629Z,98929.94
2022-09-27T14:21:48.425Z,98930.66
2022-09-27T14:25:03.038Z,98941.06
2022-09-27T14:28:20.309Z,98929.69
2022-09-27T14:31:32.023Z,98937.03
2022-09-27T14:34:46.558Z,98935.31
2022-09-27T14:37:52.640Z,98932.84
2022-09-27T14:40:59.593Z,98942.09
2022-09-27T14:44:01.448Z,98937.66
2022-09-27T14:47:23.668Z,98938.69
2022-09-27T14:50:28.938Z,98941.47
2022-09-27T14:53:35.909Z,98940.78
2022-09-27T14:56:38.256Z,98945.50
2022-09-27T14:59:44.498Z,98945.91
2022-09-27T15:02:46.727Z,98950.56
2022-09-27T15:05:48.266Z,98954.56
2022-09-27T15:08:50.250Z,98955.75
2022-09-27T15:12:00.149Z,98954.06
2022-09-27T15:15:01.887Z,98956.50
2022-09-27T15:18:04.099Z,98965.94
2022-09-27T15:21:06.504Z,98962.38
2022-09-27T15:24:36.452Z,98966.19
2022-09-27T15:27:38.659Z,98967.53
2022-09-27T15:30:53.173Z,98968.78
2022-09-27T15:33:58.441Z,98974.44
2022-09-27T15:37:06.125Z,98971.94
2022-09-27T15:40:17.450Z,98967.91
2022-09-27T15:43:52.931Z,98965.97
2022-09-27T15:46:54.356Z,98958.94
2022-09-27T15:49:55.712Z,98952.03
2022-09-27T15:52:57.513Z,98949.31
2022-09-27T15:55:59.385Z,98949.66
2022-09-27T15:59:01.532Z,98967.31
2022-09-27T16:02:09.995Z,98963.84
2022-09-27T16:05:12.242Z,98965.50
2022-09-27T16:08:13.665Z,98967.44
2022-09-27T16:11:17.342Z,98979.66
2022-09-27T16:14:19.715Z,98980.22
2022-09-27T16:17:21.082Z,98986.66
2022-09-27T16:20:26.330Z,98994.00
2022-09-27T16:23:28.064Z,98993.06
2022-09-27T16:26:29.703Z,98991.47
2022-09-27T16:29:31.071Z,98991.94
2022-09-27T16:32:32.665Z,98995.50
2022-09-27T16:35:34.208Z,99003.53
2022-09-27T16:38:35.726Z,99005.03
2022-09-27T16:41:37.211Z,99008.16
2022-09-27T16:44:38.606Z,99006.81
2022-09-27T16:47:39.977Z,99007.38
2022-09-27T16:51:07.526Z,99001.06
2022-09-27T16:54:08.959Z,99013.22
2022-09-27T16:57:10.715Z,99010.25
2022-09-27T17:00:12.699Z,99013.59
2022-09-27T17:03:14.285Z,99017.00
2022-09-27T17:06:17.624Z,99015.91
2022-09-27T17:09:21.110Z,99022.13
2022-09-27T17:12:22.874Z,99024.69
2022-09-27T17:15:24.267Z,99026.53
2022-09-27T17:18:25.635Z,99028.69
2022-09-27T17:21:26.996Z,99030.69
2022-09-27T17:24:28.396Z,99033.47
2022-09-27T17:27:29.936Z,99029.03
2022-09-27T17:30:31.583Z,99029.69
2022-09-27T17:33:33.031Z,99030.91
2022-09-27T17:36:35.477Z,99039.09
2022-09-27T17:39:37.745Z,99033.25
2022-09-27T17:42:39.232Z,99039.16
2022-09-27T17:45:40.598Z,99036.03
2022-09-27T17:49:00.448Z,99033.81
2022-09-27T17:52:01.973Z,99029.91
2022-09-27T17:55:03.615Z,99029.09
2022-09-27T17:58:06.229Z,99020.81
2022-09-27T18:01:07.686Z,99028.06
2022-09-27T18:04:10.678Z,99027.38
2022-09-27T18:07:15.010Z,99027.16
2022-09-27T18:10:17.622Z,99025.38
2022-09-27T18:13:18.982Z,99030.44
2022-09-27T18:16:20.492Z,99029.59
2022-09-27T18:19:21.889Z,99032.84
2022-09-27T18:22:29.258Z,99030.13
2022-09-27T18:25:30.657Z,99039.06
2022-09-27T18:28:32.088Z,99044.59
2022-09-27T18:31:33.886Z,99046.56
2022-09-27T18:34:35.272Z,99051.38
2022-09-27T18:37:36.629Z,99049.44
2022-09-27T18:40:55.699Z,99054.13
2022-09-27T18:44:00.874Z,99062.97
2022-09-27T18:47:02.388Z,99070.28
2022-09-27T18:50:04.183Z,99070.91
2022-09-27T18:53:05.611Z,99065.63
2022-09-27T18:56:09.636Z,99076.31
2022-09-27T18:59:11.287Z,99070.44
2022-09-27T19:02:12.739Z,99078.63
2022-09-27T19:05:14.206Z,99080.59
2022-09-27T19:08:15.579Z,99089.34
2022-09-27T19:11:18.388Z,99079.13
2022-09-27T19:14:22.291Z,99080.06
2022-09-27T19:17:23.677Z,99082.19
2022-09-27T19:20:25.055Z,99079.38
2022-09-27T19:23:26.457Z,99078.44
2022-09-27T19:26:28.375Z,99078.09
2022-09-27T19:29:29.853Z,99081.31
2022-09-27T19:32:31.273Z,99082.25
2022-09-27T19:35:32.746Z,99080.47
2022-09-27T19:38:35.828Z,99072.41
2022-09-27T19:41:37.506Z,99073.34
2022-09-27T19:44:38.867Z,99070.38
2022-09-27T19:47:40.322Z,99064.44
2022-09-27T19:50:41.711Z,99051.25
2022-09-27T19:53:43.239Z,99045.13
2022-09-27T19:56:44.627Z,99042.88
2022-09-27T19:59:46.096Z,99041.53
2022-09-27T20:02:47.644Z,99041.19
2022-09-27T20:05:56.479Z,99041.75
2022-09-27T20:08:58.496Z,99033.84
2022-09-27T20:11:59.880Z,99049.94
2022-09-27T20:15:01.297Z,99050.72
2022-09-27T20:18:07.157Z,99058.78
2022-09-27T20:21:11.305Z,99052.78
2022-09-27T20:24:12.869Z,99056.75
2022-09-27T20:27:14.243Z,99053.63
2022-09-27T20:30:15.782Z,99043.41
2022-09-27T20:33:35.829Z,99045.72
2022-09-27T20:36:39.772Z,99039.06
2022-09-27T20:39:41.182Z,99039.16
2022-09-27T20:42:42.566Z,99035.31
2022-09-27T20:45:44.291Z,99033.53
2022-09-27T20:48:50.025Z,99030.81
2022-09-27T20:51:51.477Z,99024.44
2022-09-27T20:54:52.911Z,99018.41
2022-09-27T20:57:57.738Z,99010.50
2022-09-27T21:01:06.689Z,99006.91
2022-09-27T21:04:09.261Z,99004.19
2022-09-27T21:07:10.659Z,98993.91
2022-09-27T21:10:12.066Z,99007.19
2022-09-27T21:13:13.434Z,99001.97
2022-09-27T21:16:25.871Z,98996.56
2022-09-27T21:19:29.196Z,98994.84
2022-09-27T21:22:30.659Z,98995.78
2022-09-27T21:25:32.034Z,98990.69
2022-09-27T21:28:41.438Z,98992.88
2022-09-27T21:31:43.089Z,98992.22
2022-09-27T21:34:44.833Z,98979.03
2022-09-27T21:37:47.565Z,98978.44
2022-09-27T21:41:03.338Z,98971.97
2022-09-27T21:44:05.820Z,98978.38
2022-09-27T21:47:07.271Z,98964.16
2022-09-27T21:50:08.810Z,98963.22
2022-09-27T21:53:10.181Z,98951.91
2022-09-27T21:56:11.896Z,98945.53
2022-09-27T21:59:15.347Z,98936.28
2022-09-27T22:02:19.313Z,98932.88
2022-09-27T22:05:20.833Z,98925.16
2022-09-27T22:08:22.196Z,98917.00
2022-09-27T22:11:26.350Z,98915.03
2022-09-27T22:14:27.730Z,98909.09
2022-09-27T22:17:29.204Z,98906.63
2022-09-27T22:20:31.641Z,98903.84
2022-09-27T22:23:33.500Z,98889.72
2022-09-27T22:26:37.820Z,98894.53
2022-09-27T22:29:39.195Z,98879.19
2022-09-27T22:32:45.085Z,98866.38
2022-09-27T22:35:47.433Z,98869.59
2022-09-27T22:38:49.781Z,98859.06
2022-09-27T22:41:51.226Z,98852.78
2022-09-27T22:44:52.750Z,98858.53
2022-09-27T22:47:54.135Z,98851.38
2022-09-27T22:50:56.986Z,98831.41
2022-09-27T22:53:58.370Z,98827.84
2022-09-27T22:56:59.747Z,98833.19
2022-09-27T23:00:01.590Z,98825.97
2022-09-27T23:03:03.018Z,98818.06
2022-09-27T23:06:06.949Z,98815.44
2022-09-27T23:09:09.424Z,98815.44
2022-09-27T23:12:10.961Z,98819.19
2022-09-27T23:15:16.077Z,98801.38
2022-09-27T23:18:17.450Z,98799.03
2022-09-27T23:21:18.830Z,98799.53
2022-09-27T23:24:20.195Z,98785.66
2022-09-27T23:27:40.254Z,98783.22
2022-09-27T23:30:41.805Z,98776.63
2022-09-27T23:33:46.222Z,98763.63
2022-09-27T23:36:47.699Z,98767.88
2022-09-27T23:39:49.166Z,98759.13
2022-09-27T23:42:52.195Z,98751.97
2022-09-27T23:45:57.141Z,98742.44
2022-09-27T23:48:58.766Z,98736.16
2022-09-27T23:52:00.752Z,98728.25
2022-09-27T23:55:02.179Z,98727.47
2022-09-27T23:58:03.560Z,98720.34
